sensor_id;sensor_type;location;lat;lon;timestamp;P1;durP1;ratioP1;P2;durP2;ratioP2
65162;SDS011;51751;55.714;37.436;2022-08-30T00:01:24;17.20;;;6.03;;
65162;SDS011;51751;55.714;37.436;2022-08-30T00:03:51;15.68;;;6.20;;
65162;SDS011;51751;55.714;37.436;2022-08-30T00:06:19;11.02;;;5.55;;
65162;SDS011;51751;55.714;37.436;2022-08-30T00:08:46;16.63;;;6.18;;
65162;SDS011;51751;55.714;37.436;2022-08-30T00:11:17;17.13;;;6.38;;
65162;SDS011;51751;55.714;37.436;2022-08-30T00:13:46;13.05;;;6.38;;
65162;SDS011;51751;55.714;37.436;2022-08-30T00:16:14;12.30;;;5.70;;
65162;SDS011;51751;55.714;37.436;2022-08-30T00:18:41;13.70;;;6.10;;
65162;SDS011;51751;55.714;37.436;2022-08-30T00:21:07;15.73;;;6.40;;
65162;SDS011;51751;55.714;37.436;2022-08-30T00:23:34;16.52;;;6.63;;
65162;SDS011;51751;55.714;37.436;2022-08-30T00:26:00;21.45;;;6.38;;
65162;SDS011;51751;55.714;37.436;2022-08-30T00:28:27;14.32;;;6.78;;
65162;SDS011;51751;55.714;37.436;2022-08-30T00:30:53;17.38;;;6.30;;
65162;SDS011;51751;55.714;37.436;2022-08-30T00:33:19;17.48;;;6.30;;
65162;SDS011;51751;55.714;37.436;2022-08-30T00:35:45;16.73;;;6.50;;
65162;SDS011;51751;55.714;37.436;2022-08-30T00:38:12;17.73;;;5.93;;
65162;SDS011;51751;55.714;37.436;2022-08-30T00:40:39;19.67;;;6.45;;
65162;SDS011;51751;55.714;37.436;2022-08-30T00:43:08;16.58;;;6.50;;
65162;SDS011;51751;55.714;37.436;2022-08-30T00:45:57;15.63;;;6.03;;
65162;SDS011;51751;55.714;37.436;2022-08-30T00:48:23;13.80;;;5.50;;
65162;SDS011;51751;55.714;37.436;2022-08-30T00:50:57;21.02;;;6.60;;
65162;SDS011;51751;55.714;37.436;2022-08-30T00:53:26;14.32;;;5.93;;
65162;SDS011;51751;55.714;37.436;2022-08-30T00:55:56;15.23;;;6.32;;
65162;SDS011;51751;55.714;37.436;2022-08-30T00:58:27;17.88;;;6.47;;
65162;SDS011;51751;55.714;37.436;2022-08-30T01:03:43;20.90;;;6.30;;
65162;SDS011;51751;55.714;37.436;2022-08-30T01:06:09;16.77;;;6.25;;
65162;SDS011;51751;55.714;37.436;2022-08-30T01:08:36;16.80;;;5.78;;
65162;SDS011;51751;55.714;37.436;2022-08-30T01:11:03;14.05;;;6.32;;
65162;SDS011;51751;55.714;37.436;2022-08-30T01:13:29;15.52;;;6.45;;
65162;SDS011;51751;55.714;37.436;2022-08-30T01:15:56;19.15;;;6.65;;
65162;SDS011;51751;55.714;37.436;2022-08-30T01:18:24;17.48;;;6.30;;
65162;SDS011;51751;55.714;37.436;2022-08-30T01:20:59;17.83;;;6.13;;
65162;SDS011;51751;55.714;37.436;2022-08-30T01:23:34;18.67;;;6.30;;
65162;SDS011;51751;55.714;37.436;2022-08-30T01:26:03;17.05;;;6.82;;
65162;SDS011;51751;55.714;37.436;2022-08-30T01:28:30;19.05;;;6.03;;
65162;SDS011;51751;55.714;37.436;2022-08-30T01:30:56;18.10;;;6.55;;
65162;SDS011;51751;55.714;37.436;2022-08-30T01:33:23;14.30;;;6.25;;
65162;SDS011;51751;55.714;37.436;2022-08-30T01:35:56;19.25;;;5.50;;
65162;SDS011;51751;55.714;37.436;2022-08-30T01:38:38;17.73;;;6.32;;
65162;SDS011;51751;55.714;37.436;2022-08-30T01:41:21;17.02;;;6.10;;
65162;SDS011;51751;55.714;37.436;2022-08-30T01:43:48;18.73;;;6.25;;
65162;SDS011;51751;55.714;37.436;2022-08-30T01:46:15;17.13;;;6.32;;
65162;SDS011;51751;55.714;37.436;2022-08-30T01:48:42;16.15;;;6.00;;
65162;SDS011;51751;55.714;37.436;2022-08-30T01:51:09;19.52;;;7.13;;
65162;SDS011;51751;55.714;37.436;2022-08-30T01:53:37;19.02;;;7.25;;
65162;SDS011;51751;55.714;37.436;2022-08-30T01:56:04;15.18;;;5.40;;
65162;SDS011;51751;55.714;37.436;2022-08-30T01:58:32;14.55;;;5.47;;
65162;SDS011;51751;55.714;37.436;2022-08-30T02:00:59;15.68;;;5.97;;
65162;SDS011;51751;55.714;37.436;2022-08-30T02:03:26;17.58;;;6.20;;
65162;SDS011;51751;55.714;37.436;2022-08-30T02:06:00;17.23;;;5.95;;
65162;SDS011;51751;55.714;37.436;2022-08-30T02:08:27;15.50;;;5.75;;
65162;SDS011;51751;55.714;37.436;2022-08-30T02:10:53;14.20;;;5.63;;
65162;SDS011;51751;55.714;37.436;2022-08-30T02:13:19;14.15;;;5.95;;
65162;SDS011;51751;55.714;37.436;2022-08-30T02:15:46;19.23;;;6.65;;
65162;SDS011;51751;55.714;37.436;2022-08-30T02:18:12;15.15;;;6.35;;
65162;SDS011;51751;55.714;37.436;2022-08-30T02:20:38;16.60;;;6.32;;
65162;SDS011;51751;55.714;37.436;2022-08-30T02:23:07;17.63;;;5.82;;
65162;SDS011;51751;55.714;37.436;2022-08-30T02:25:33;16.55;;;5.93;;
65162;SDS011;51751;55.714;37.436;2022-08-30T02:27:59;18.88;;;6.68;;
65162;SDS011;51751;55.714;37.436;2022-08-30T02:30:25;14.40;;;5.97;;
65162;SDS011;51751;55.714;37.436;2022-08-30T02:32:51;17.75;;;5.90;;
65162;SDS011;51751;55.714;37.436;2022-08-30T02:35:17;25.40;;;6.50;;
65162;SDS011;51751;55.714;37.436;2022-08-30T02:37:43;13.65;;;5.55;;
65162;SDS011;51751;55.714;37.436;2022-08-30T02:40:09;20.05;;;5.90;;
65162;SDS011;51751;55.714;37.436;2022-08-30T02:42:36;21.92;;;6.20;;
65162;SDS011;51751;55.714;37.436;2022-08-30T02:45:03;13.88;;;5.75;;
65162;SDS011;51751;55.714;37.436;2022-08-30T02:47:29;14.82;;;5.95;;
65162;SDS011;51751;55.714;37.436;2022-08-30T02:49:55;20.40;;;6.70;;
65162;SDS011;51751;55.714;37.436;2022-08-30T02:52:21;17.98;;;6.15;;
65162;SDS011;51751;55.714;37.436;2022-08-30T02:54:47;20.83;;;6.70;;
65162;SDS011;51751;55.714;37.436;2022-08-30T02:57:13;26.77;;;7.38;;
65162;SDS011;51751;55.714;37.436;2022-08-30T02:59:39;19.52;;;6.85;;
65162;SDS011;51751;55.714;37.436;2022-08-30T03:02:11;21.67;;;7.63;;
65162;SDS011;51751;55.714;37.436;2022-08-30T03:04:37;15.35;;;6.20;;
65162;SDS011;51751;55.714;37.436;2022-08-30T03:07:07;23.42;;;6.97;;
65162;SDS011;51751;55.714;37.436;2022-08-30T03:09:34;16.73;;;7.15;;
65162;SDS011;51751;55.714;37.436;2022-08-30T03:12:00;15.45;;;6.22;;
65162;SDS011;51751;55.714;37.436;2022-08-30T03:14:26;15.75;;;6.78;;
65162;SDS011;51751;55.714;37.436;2022-08-30T03:16:53;14.65;;;6.68;;
65162;SDS011;51751;55.714;37.436;2022-08-30T03:19:19;22.58;;;7.07;;
65162;SDS011;51751;55.714;37.436;2022-08-30T03:21:45;25.85;;;7.80;;
65162;SDS011;51751;55.714;37.436;2022-08-30T03:24:11;31.50;;;8.30;;
65162;SDS011;51751;55.714;37.436;2022-08-30T03:26:38;25.27;;;7.15;;
65162;SDS011;51751;55.714;37.436;2022-08-30T03:29:03;27.65;;;8.60;;
65162;SDS011;51751;55.714;37.436;2022-08-30T03:31:29;29.42;;;8.00;;
65162;SDS011;51751;55.714;37.436;2022-08-30T03:33:55;20.90;;;7.25;;
65162;SDS011;51751;55.714;37.436;2022-08-30T03:36:21;22.70;;;8.10;;
65162;SDS011;51751;55.714;37.436;2022-08-30T03:38:47;32.58;;;7.90;;
65162;SDS011;51751;55.714;37.436;2022-08-30T03:41:13;37.78;;;8.20;;
65162;SDS011;51751;55.714;37.436;2022-08-30T03:43:41;20.45;;;6.25;;
65162;SDS011;51751;55.714;37.436;2022-08-30T03:46:08;21.98;;;7.18;;
65162;SDS011;51751;55.714;37.436;2022-08-30T03:48:35;13.23;;;5.93;;
65162;SDS011;51751;55.714;37.436;2022-08-30T03:51:01;13.98;;;6.80;;
65162;SDS011;51751;55.714;37.436;2022-08-30T03:53:27;19.15;;;7.53;;
65162;SDS011;51751;55.714;37.436;2022-08-30T03:55:53;19.48;;;7.88;;
65162;SDS011;51751;55.714;37.436;2022-08-30T03:58:19;14.85;;;7.07;;
65162;SDS011;51751;55.714;37.436;2022-08-30T04:00:45;17.70;;;6.53;;
65162;SDS011;51751;55.714;37.436;2022-08-30T04:03:11;12.43;;;6.25;;
65162;SDS011;51751;55.714;37.436;2022-08-30T04:05:37;18.20;;;7.53;;
65162;SDS011;51751;55.714;37.436;2022-08-30T04:08:03;17.52;;;7.45;;
65162;SDS011;51751;55.714;37.436;2022-08-30T04:10:29;20.65;;;7.18;;
65162;SDS011;51751;55.714;37.436;2022-08-30T04:12:55;13.10;;;7.00;;
65162;SDS011;51751;55.714;37.436;2022-08-30T04:15:23;17.20;;;7.43;;
65162;SDS011;51751;55.714;37.436;2022-08-30T04:17:49;16.23;;;7.45;;
65162;SDS011;51751;55.714;37.436;2022-08-30T04:20:15;17.92;;;8.27;;
65162;SDS011;51751;55.714;37.436;2022-08-30T04:22:41;12.75;;;7.10;;
65162;SDS011;51751;55.714;37.436;2022-08-30T04:25:07;19.90;;;6.80;;
65162;SDS011;51751;55.714;37.436;2022-08-30T04:27:34;13.10;;;7.00;;
65162;SDS011;51751;55.714;37.436;2022-08-30T04:29:59;21.23;;;7.75;;
65162;SDS011;51751;55.714;37.436;2022-08-30T04:32:26;16.98;;;7.70;;
65162;SDS011;51751;55.714;37.436;2022-08-30T04:34:58;18.98;;;7.63;;
65162;SDS011;51751;55.714;37.436;2022-08-30T04:37:24;16.75;;;6.97;;
65162;SDS011;51751;55.714;37.436;2022-08-30T04:40:09;18.00;;;7.53;;
65162;SDS011;51751;55.714;37.436;2022-08-30T04:42:36;16.50;;;7.05;;
65162;SDS011;51751;55.714;37.436;2022-08-30T04:45:03;23.15;;;12.20;;
65162;SDS011;51751;55.714;37.436;2022-08-30T04:47:31;21.50;;;8.25;;
65162;SDS011;51751;55.714;37.436;2022-08-30T04:49:57;17.85;;;7.57;;
65162;SDS011;51751;55.714;37.436;2022-08-30T04:52:23;16.75;;;8.48;;
65162;SDS011;51751;55.714;37.436;2022-08-30T04:54:53;19.50;;;8.52;;
65162;SDS011;51751;55.714;37.436;2022-08-30T04:57:20;17.83;;;7.85;;
65162;SDS011;51751;55.714;37.436;2022-08-30T04:59:46;18.45;;;8.00;;
65162;SDS011;51751;55.714;37.436;2022-08-30T05:02:12;19.17;;;8.77;;
65162;SDS011;51751;55.714;37.436;2022-08-30T05:04:38;21.48;;;7.85;;
65162;SDS011;51751;55.714;37.436;2022-08-30T05:07:24;14.85;;;7.57;;
65162;SDS011;51751;55.714;37.436;2022-08-30T05:09:50;19.83;;;8.23;;
65162;SDS011;51751;55.714;37.436;2022-08-30T05:12:19;16.85;;;8.05;;
65162;SDS011;51751;55.714;37.436;2022-08-30T05:14:44;16.42;;;8.48;;
65162;SDS011;51751;55.714;37.436;2022-08-30T05:17:11;17.27;;;9.30;;
65162;SDS011;51751;55.714;37.436;2022-08-30T05:19:37;15.70;;;8.52;;
65162;SDS011;51751;55.714;37.436;2022-08-30T05:22:02;13.38;;;9.15;;
65162;SDS011;51751;55.714;37.436;2022-08-30T05:24:28;16.00;;;8.85;;
65162;SDS011;51751;55.714;37.436;2022-08-30T05:26:56;15.30;;;9.85;;
65162;SDS011;51751;55.714;37.436;2022-08-30T05:29:23;19.67;;;9.88;;
65162;SDS011;51751;55.714;37.436;2022-08-30T05:32:02;16.05;;;9.00;;
65162;SDS011;51751;55.714;37.436;2022-08-30T05:34:28;18.92;;;9.63;;
65162;SDS011;51751;55.714;37.436;2022-08-30T05:36:55;22.67;;;9.80;;
65162;SDS011;51751;55.714;37.436;2022-08-30T05:39:21;22.75;;;9.32;;
65162;SDS011;51751;55.714;37.436;2022-08-30T05:41:47;21.58;;;9.88;;
65162;SDS011;51751;55.714;37.436;2022-08-30T05:44:12;19.55;;;9.93;;
65162;SDS011;51751;55.714;37.436;2022-08-30T05:46:38;17.58;;;9.70;;
65162;SDS011;51751;55.714;37.436;2022-08-30T05:49:10;20.92;;;9.65;;
65162;SDS011;51751;55.714;37.436;2022-08-30T05:51:36;17.73;;;9.10;;
65162;SDS011;51751;55.714;37.436;2022-08-30T05:54:03;17.35;;;9.27;;
65162;SDS011;51751;55.714;37.436;2022-08-30T05:56:31;25.25;;;9.77;;
65162;SDS011;51751;55.714;37.436;2022-08-30T05:58:59;14.65;;;8.35;;
65162;SDS011;51751;55.714;37.436;2022-08-30T06:01:29;16.35;;;9.10;;
65162;SDS011;51751;55.714;37.436;2022-08-30T06:04:00;15.93;;;9.43;;
65162;SDS011;51751;55.714;37.436;2022-08-30T06:06:46;18.15;;;9.52;;
65162;SDS011;51751;55.714;37.436;2022-08-30T06:09:12;21.02;;;8.82;;
65162;SDS011;51751;55.714;37.436;2022-08-30T06:11:38;18.23;;;9.38;;
65162;SDS011;51751;55.714;37.436;2022-08-30T06:14:05;16.02;;;9.02;;
65162;SDS011;51751;55.714;37.436;2022-08-30T06:16:31;20.90;;;9.32;;
65162;SDS011;51751;55.714;37.436;2022-08-30T06:18:57;23.17;;;9.18;;
65162;SDS011;51751;55.714;37.436;2022-08-30T06:21:25;15.05;;;8.88;;
65162;SDS011;51751;55.714;37.436;2022-08-30T06:23:56;15.85;;;9.77;;
65162;SDS011;51751;55.714;37.436;2022-08-30T06:26:22;17.50;;;10.18;;
65162;SDS011;51751;55.714;37.436;2022-08-30T06:28:49;22.98;;;9.65;;
65162;SDS011;51751;55.714;37.436;2022-08-30T06:31:24;19.48;;;9.52;;
65162;SDS011;51751;55.714;37.436;2022-08-30T06:33:51;14.70;;;8.88;;
65162;SDS011;51751;55.714;37.436;2022-08-30T06:36:20;20.58;;;9.90;;
65162;SDS011;51751;55.714;37.436;2022-08-30T06:38:52;17.60;;;10.02;;
65162;SDS011;51751;55.714;37.436;2022-08-30T06:41:20;18.95;;;9.90;;
65162;SDS011;51751;55.714;37.436;2022-08-30T06:43:48;22.33;;;9.38;;
65162;SDS011;51751;55.714;37.436;2022-08-30T06:46:16;15.23;;;8.93;;
65162;SDS011;51751;55.714;37.436;2022-08-30T06:48:46;15.60;;;9.38;;
65162;SDS011;51751;55.714;37.436;2022-08-30T06:51:20;21.33;;;9.40;;
65162;SDS011;51751;55.714;37.436;2022-08-30T06:54:16;21.02;;;9.82;;
65162;SDS011;51751;55.714;37.436;2022-08-30T06:56:46;17.30;;;8.98;;
65162;SDS011;51751;55.714;37.436;2022-08-30T06:59:12;19.70;;;9.45;;
65162;SDS011;51751;55.714;37.436;2022-08-30T07:01:38;15.55;;;9.07;;
65162;SDS011;51751;55.714;37.436;2022-08-30T07:04:04;15.80;;;8.57;;
65162;SDS011;51751;55.714;37.436;2022-08-30T07:06:31;18.50;;;9.43;;
65162;SDS011;51751;55.714;37.436;2022-08-30T07:08:56;22.42;;;9.02;;
65162;SDS011;51751;55.714;37.436;2022-08-30T07:11:27;19.13;;;9.88;;
65162;SDS011;51751;55.714;37.436;2022-08-30T07:14:00;22.08;;;9.57;;
65162;SDS011;51751;55.714;37.436;2022-08-30T07:16:26;26.45;;;9.43;;
65162;SDS011;51751;55.714;37.436;2022-08-30T07:18:53;15.88;;;9.32;;
65162;SDS011;51751;55.714;37.436;2022-08-30T07:21:36;20.90;;;9.60;;
65162;SDS011;51751;55.714;37.436;2022-08-30T07:24:05;18.38;;;9.48;;
65162;SDS011;51751;55.714;37.436;2022-08-30T07:26:42;18.60;;;9.13;;
65162;SDS011;51751;55.714;37.436;2022-08-30T07:29:13;20.65;;;9.82;;
65162;SDS011;51751;55.714;37.436;2022-08-30T07:31:58;23.55;;;9.93;;
65162;SDS011;51751;55.714;37.436;2022-08-30T07:34:24;23.45;;;9.52;;
65162;SDS011;51751;55.714;37.436;2022-08-30T07:36:51;23.80;;;10.43;;
65162;SDS011;51751;55.714;37.436;2022-08-30T07:39:18;19.52;;;9.60;;
65162;SDS011;51751;55.714;37.436;2022-08-30T07:41:44;16.33;;;9.63;;
65162;SDS011;51751;55.714;37.436;2022-08-30T07:44:10;17.10;;;9.55;;
65162;SDS011;51751;55.714;37.436;2022-08-30T07:46:37;20.77;;;10.13;;
65162;SDS011;51751;55.714;37.436;2022-08-30T07:49:06;18.38;;;8.85;;
65162;SDS011;51751;55.714;37.436;2022-08-30T07:51:34;20.42;;;9.90;;
65162;SDS011;51751;55.714;37.436;2022-08-30T07:54:01;16.13;;;9.23;;
65162;SDS011;51751;55.714;37.436;2022-08-30T07:56:27;14.63;;;8.52;;
65162;SDS011;51751;55.714;37.436;2022-08-30T07:58:53;16.27;;;9.52;;
65162;SDS011;51751;55.714;37.436;2022-08-30T08:01:20;18.63;;;9.45;;
65162;SDS011;51751;55.714;37.436;2022-08-30T08:03:46;26.45;;;9.52;;
65162;SDS011;51751;55.714;37.436;2022-08-30T08:06:16;16.25;;;9.63;;
65162;SDS011;51751;55.714;37.436;2022-08-30T08:08:43;16.95;;;9.02;;
65162;SDS011;51751;55.714;37.436;2022-08-30T08:11:15;14.30;;;8.75;;
65162;SDS011;51751;55.714;37.436;2022-08-30T08:13:46;17.45;;;8.38;;
65162;SDS011;51751;55.714;37.436;2022-08-30T08:16:13;21.67;;;8.70;;
65162;SDS011;51751;55.714;37.436;2022-08-30T08:18:39;19.00;;;8.75;;
65162;SDS011;51751;55.714;37.436;2022-08-30T08:21:05;12.00;;;8.52;;
65162;SDS011;51751;55.714;37.436;2022-08-30T08:23:31;17.23;;;8.38;;
65162;SDS011;51751;55.714;37.436;2022-08-30T08:25:57;17.52;;;8.05;;
65162;SDS011;51751;55.714;37.436;2022-08-30T08:28:23;15.52;;;8.98;;
65162;SDS011;51751;55.714;37.436;2022-08-30T08:30:49;18.58;;;8.65;;
65162;SDS011;51751;55.714;37.436;2022-08-30T08:33:16;16.20;;;8.40;;
65162;SDS011;51751;55.714;37.436;2022-08-30T08:35:44;17.00;;;9.23;;
65162;SDS011;51751;55.714;37.436;2022-08-30T08:38:10;20.95;;;8.90;;
65162;SDS011;51751;55.714;37.436;2022-08-30T08:43:52;25.25;;;9.75;;
65162;SDS011;51751;55.714;37.436;2022-08-30T08:46:24;24.58;;;9.45;;
65162;SDS011;51751;55.714;37.436;2022-08-30T08:49:13;19.00;;;8.82;;
65162;SDS011;51751;55.714;37.436;2022-08-30T08:51:39;13.95;;;8.90;;
65162;SDS011;51751;55.714;37.436;2022-08-30T08:54:26;17.53;;;10.47;;
65162;SDS011;51751;55.714;37.436;2022-08-30T08:56:58;18.58;;;9.00;;
65162;SDS011;51751;55.714;37.436;2022-08-30T08:59:25;19.27;;;10.00;;
65162;SDS011;51751;55.714;37.436;2022-08-30T09:01:51;19.50;;;9.57;;
65162;SDS011;51751;55.714;37.436;2022-08-30T09:04:21;18.05;;;9.10;;
65162;SDS011;51751;55.714;37.436;2022-08-30T09:06:51;15.27;;;9.48;;
65162;SDS011;51751;55.714;37.436;2022-08-30T09:09:36;14.68;;;9.10;;
65162;SDS011;51751;55.714;37.436;2022-08-30T09:12:23;20.10;;;9.80;;
65162;SDS011;51751;55.714;37.436;2022-08-30T09:14:54;20.30;;;9.60;;
65162;SDS011;51751;55.714;37.436;2022-08-30T09:17:22;21.02;;;10.40;;
65162;SDS011;51751;55.714;37.436;2022-08-30T09:24:52;26.00;;;11.77;;
65162;SDS011;51751;55.714;37.436;2022-08-30T09:30:01;26.38;;;11.75;;
65162;SDS011;51751;55.714;37.436;2022-08-30T09:32:39;23.20;;;11.45;;
65162;SDS011;51751;55.714;37.436;2022-08-30T09:35:16;23.02;;;11.45;;
65162;SDS011;51751;55.714;37.436;2022-08-30T09:37:45;21.30;;;11.48;;
65162;SDS011;51751;55.714;37.436;2022-08-30T09:40:21;23.13;;;10.65;;
65162;SDS011;51751;55.714;37.436;2022-08-30T09:43:10;17.40;;;11.43;;
65162;SDS011;51751;55.714;37.436;2022-08-30T09:45:43;23.98;;;11.98;;
65162;SDS011;51751;55.714;37.436;2022-08-30T09:51:42;20.83;;;11.20;;
65162;SDS011;51751;55.714;37.436;2022-08-30T09:54:08;20.08;;;11.15;;
65162;SDS011;51751;55.714;37.436;2022-08-30T09:57:03;20.05;;;11.13;;
65162;SDS011;51751;55.714;37.436;2022-08-30T09:59:47;20.02;;;10.60;;
65162;SDS011;51751;55.714;37.436;2022-08-30T10:05:51;24.40;;;11.95;;
65162;SDS011;51751;55.714;37.436;2022-08-30T10:11:01;17.38;;;10.20;;
65162;SDS011;51751;55.714;37.436;2022-08-30T10:13:36;19.15;;;11.10;;
65162;SDS011;51751;55.714;37.436;2022-08-30T10:19:02;18.40;;;11.73;;
65162;SDS011;51751;55.714;37.436;2022-08-30T10:21:39;15.52;;;11.30;;
65162;SDS011;51751;55.714;37.436;2022-08-30T10:24:12;21.08;;;12.23;;
65162;SDS011;51751;55.714;37.436;2022-08-30T10:26:47;17.20;;;11.55;;
65162;SDS011;51751;55.714;37.436;2022-08-30T10:29:17;13.43;;;11.27;;
65162;SDS011;51751;55.714;37.436;2022-08-30T10:34:38;26.27;;;11.55;;
65162;SDS011;51751;55.714;37.436;2022-08-30T10:37:07;19.23;;;11.70;;
65162;SDS011;51751;55.714;37.436;2022-08-30T10:39:40;20.77;;;11.95;;
65162;SDS011;51751;55.714;37.436;2022-08-30T10:42:10;26.60;;;12.20;;
65162;SDS011;51751;55.714;37.436;2022-08-30T10:44:42;21.63;;;11.75;;
65162;SDS011;51751;55.714;37.436;2022-08-30T10:50:22;22.80;;;11.32;;
65162;SDS011;51751;55.714;37.436;2022-08-30T10:52:53;22.42;;;11.80;;
65162;SDS011;51751;55.714;37.436;2022-08-30T10:55:40;21.33;;;12.40;;
65162;SDS011;51751;55.714;37.436;2022-08-30T10:58:13;23.83;;;11.73;;
65162;SDS011;51751;55.714;37.436;2022-08-30T11:00:53;31.05;;;11.90;;
65162;SDS011;51751;55.714;37.436;2022-08-30T11:06:24;20.02;;;11.02;;
65162;SDS011;51751;55.714;37.436;2022-08-30T11:09:37;19.45;;;10.15;;
65162;SDS011;51751;55.714;37.436;2022-08-30T11:12:36;13.32;;;9.00;;
65162;SDS011;51751;55.714;37.436;2022-08-30T11:15:15;18.75;;;10.20;;
65162;SDS011;51751;55.714;37.436;2022-08-30T11:17:44;15.05;;;9.93;;
65162;SDS011;51751;55.714;37.436;2022-08-30T11:20:21;20.70;;;10.43;;
65162;SDS011;51751;55.714;37.436;2022-08-30T11:26:06;23.13;;;12.35;;
65162;SDS011;51751;55.714;37.436;2022-08-30T11:31:48;24.85;;;11.60;;
65162;SDS011;51751;55.714;37.436;2022-08-30T11:34:05;17.88;;;10.85;;
65162;SDS011;51751;55.714;37.436;2022-08-30T11:39:04;17.70;;;11.20;;
65162;SDS011;51751;55.714;37.436;2022-08-30T11:41:45;18.63;;;11.32;;
65162;SDS011;51751;55.714;37.436;2022-08-30T11:44:31;22.23;;;10.60;;
65162;SDS011;51751;55.714;37.436;2022-08-30T11:47:00;20.50;;;11.10;;
65162;SDS011;51751;55.714;37.436;2022-08-30T11:50:02;21.52;;;11.18;;
65162;SDS011;51751;55.714;37.436;2022-08-30T11:52:29;21.42;;;11.75;;
65162;SDS011;51751;55.714;37.436;2022-08-30T12:00:36;20.80;;;11.23;;
65162;SDS011;51751;55.714;37.436;2022-08-30T12:08:09;23.35;;;11.38;;
65162;SDS011;51751;55.714;37.436;2022-08-30T12:10:37;24.52;;;10.65;;
65162;SDS011;51751;55.714;37.436;2022-08-30T12:18:40;16.77;;;9.85;;
65162;SDS011;51751;55.714;37.436;2022-08-30T12:21:32;17.58;;;9.43;;
65162;SDS011;51751;55.714;37.436;2022-08-30T12:26:38;23.77;;;10.75;;
65162;SDS011;51751;55.714;37.436;2022-08-30T12:31:53;20.48;;;9.35;;
65162;SDS011;51751;55.714;37.436;2022-08-30T12:34:28;23.70;;;9.23;;
65162;SDS011;51751;55.714;37.436;2022-08-30T12:37:00;28.08;;;8.48;;
65162;SDS011;51751;55.714;37.436;2022-08-30T12:39:39;15.75;;;7.55;;
65162;SDS011;51751;55.714;37.436;2022-08-30T12:42:10;16.38;;;8.02;;
65162;SDS011;51751;55.714;37.436;2022-08-30T12:44:36;17.08;;;7.93;;
65162;SDS011;51751;55.714;37.436;2022-08-30T12:47:02;20.65;;;8.70;;
65162;SDS011;51751;55.714;37.436;2022-08-30T12:49:33;16.27;;;8.30;;
65162;SDS011;51751;55.714;37.436;2022-08-30T12:52:13;18.90;;;7.80;;
65162;SDS011;51751;55.714;37.436;2022-08-30T12:54:41;20.42;;;7.38;;
65162;SDS011;51751;55.714;37.436;2022-08-30T12:57:08;17.77;;;7.40;;
65162;SDS011;51751;55.714;37.436;2022-08-30T13:04:46;16.42;;;6.55;;
65162;SDS011;51751;55.714;37.436;2022-08-30T13:10:13;18.02;;;7.07;;
65162;SDS011;51751;55.714;37.436;2022-08-30T13:12:57;16.83;;;6.85;;
65162;SDS011;51751;55.714;37.436;2022-08-30T13:15:27;12.05;;;6.38;;
65162;SDS011;51751;55.714;37.436;2022-08-30T13:23:50;23.38;;;8.32;;
65162;SDS011;51751;55.714;37.436;2022-08-30T13:26:19;16.85;;;7.32;;
65162;SDS011;51751;55.714;37.436;2022-08-30T13:28:47;18.42;;;7.38;;
65162;SDS011;51751;55.714;37.436;2022-08-30T13:31:15;19.00;;;7.10;;
65162;SDS011;51751;55.714;37.436;2022-08-30T13:33:41;16.55;;;6.75;;
65162;SDS011;51751;55.714;37.436;2022-08-30T13:36:13;15.27;;;7.20;;
65162;SDS011;51751;55.714;37.436;2022-08-30T13:38:39;17.63;;;7.40;;
65162;SDS011;51751;55.714;37.436;2022-08-30T13:41:08;17.65;;;7.22;;
65162;SDS011;51751;55.714;37.436;2022-08-30T13:43:35;16.88;;;7.20;;
65162;SDS011;51751;55.714;37.436;2022-08-30T13:46:20;19.30;;;7.30;;
65162;SDS011;51751;55.714;37.436;2022-08-30T13:48:47;17.35;;;6.88;;
65162;SDS011;51751;55.714;37.436;2022-08-30T13:51:14;21.33;;;6.90;;
65162;SDS011;51751;55.714;37.436;2022-08-30T13:53:42;12.90;;;6.00;;
65162;SDS011;51751;55.714;37.436;2022-08-30T13:56:08;19.33;;;5.78;;
65162;SDS011;51751;55.714;37.436;2022-08-30T13:58:34;14.77;;;5.93;;
65162;SDS011;51751;55.714;37.436;2022-08-30T14:01:00;15.93;;;6.30;;
65162;SDS011;51751;55.714;37.436;2022-08-30T14:03:26;12.00;;;5.75;;
65162;SDS011;51751;55.714;37.436;2022-08-30T14:05:52;21.95;;;5.57;;
65162;SDS011;51751;55.714;37.436;2022-08-30T14:08:22;24.70;;;6.35;;
65162;SDS011;51751;55.714;37.436;2022-08-30T14:10:54;11.30;;;4.82;;
65162;SDS011;51751;55.714;37.436;2022-08-30T14:13:22;17.67;;;5.53;;
65162;SDS011;51751;55.714;37.436;2022-08-30T14:15:49;22.80;;;5.03;;
65162;SDS011;51751;55.714;37.436;2022-08-30T14:18:18;22.38;;;5.82;;
65162;SDS011;51751;55.714;37.436;2022-08-30T14:20:44;25.63;;;5.43;;
65162;SDS011;51751;55.714;37.436;2022-08-30T14:23:12;24.50;;;4.40;;
65162;SDS011;51751;55.714;37.436;2022-08-30T14:25:38;18.02;;;4.68;;
65162;SDS011;51751;55.714;37.436;2022-08-30T14:28:04;15.73;;;4.82;;
65162;SDS011;51751;55.714;37.436;2022-08-30T14:30:30;20.30;;;4.63;;
65162;SDS011;51751;55.714;37.436;2022-08-30T14:33:15;18.52;;;4.18;;
65162;SDS011;51751;55.714;37.436;2022-08-30T14:35:41;17.75;;;4.57;;
65162;SDS011;51751;55.714;37.436;2022-08-30T14:38:08;23.17;;;5.05;;
65162;SDS011;51751;55.714;37.436;2022-08-30T14:40:36;20.48;;;4.90;;
65162;SDS011;51751;55.714;37.436;2022-08-30T14:43:06;11.48;;;4.10;;
65162;SDS011;51751;55.714;37.436;2022-08-30T14:45:32;14.07;;;4.25;;
65162;SDS011;51751;55.714;37.436;2022-08-30T14:47:58;18.77;;;4.30;;
65162;SDS011;51751;55.714;37.436;2022-08-30T14:50:30;18.63;;;4.63;;
65162;SDS011;51751;55.714;37.436;2022-08-30T14:52:56;14.30;;;4.70;;
65162;SDS011;51751;55.714;37.436;2022-08-30T14:55:23;27.48;;;5.68;;
65162;SDS011;51751;55.714;37.436;2022-08-30T14:57:53;21.98;;;4.68;;
65162;SDS011;51751;55.714;37.436;2022-08-30T15:00:19;21.02;;;5.47;;
65162;SDS011;51751;55.714;37.436;2022-08-30T15:02:45;26.15;;;5.18;;
65162;SDS011;51751;55.714;37.436;2022-08-30T15:05:11;19.80;;;5.38;;
65162;SDS011;51751;55.714;37.436;2022-08-30T15:07:37;22.90;;;5.70;;
65162;SDS011;51751;55.714;37.436;2022-08-30T15:10:03;17.95;;;5.03;;
65162;SDS011;51751;55.714;37.436;2022-08-30T15:12:32;21.73;;;5.13;;
65162;SDS011;51751;55.714;37.436;2022-08-30T15:14:58;24.30;;;5.53;;
65162;SDS011;51751;55.714;37.436;2022-08-30T15:17:24;26.17;;;5.35;;
65162;SDS011;51751;55.714;37.436;2022-08-30T15:19:50;25.63;;;6.07;;
65162;SDS011;51751;55.714;37.436;2022-08-30T15:22:16;20.38;;;5.13;;
65162;SDS011;51751;55.714;37.436;2022-08-30T15:24:43;17.23;;;5.00;;
65162;SDS011;51751;55.714;37.436;2022-08-30T15:27:09;22.55;;;5.50;;
65162;SDS011;51751;55.714;37.436;2022-08-30T15:29:35;24.60;;;4.85;;
65162;SDS011;51751;55.714;37.436;2022-08-30T15:32:02;19.00;;;5.28;;
65162;SDS011;51751;55.714;37.436;2022-08-30T15:34:28;20.60;;;4.85;;
65162;SDS011;51751;55.714;37.436;2022-08-30T15:36:57;31.33;;;5.13;;
65162;SDS011;51751;55.714;37.436;2022-08-30T15:39:24;28.55;;;5.95;;
65162;SDS011;51751;55.714;37.436;2022-08-30T15:41:50;20.55;;;5.93;;
65162;SDS011;51751;55.714;37.436;2022-08-30T15:44:17;17.73;;;4.95;;
65162;SDS011;51751;55.714;37.436;2022-08-30T15:46:43;18.38;;;4.82;;
65162;SDS011;51751;55.714;37.436;2022-08-30T15:49:15;19.30;;;4.55;;
65162;SDS011;51751;55.714;37.436;2022-08-30T15:51:43;21.92;;;5.38;;